createdAt,value
2017-05-05T00:00:02.185Z,58.60
2017-05-05T00:02:44.490Z,58.60
2017-05-05T00:05:12.988Z,58.60
2017-05-05T00:07:45.853Z,58.50
2017-05-05T00:10:15.446Z,58.50
2017-05-05T00:15:44.843Z,58.50
2017-05-05T00:24:02.669Z,58.50
2017-05-05T00:26:43.894Z,58.50
2017-05-05T00:29:13.517Z,58.50
2017-05-05T00:31:43.588Z,59.10
2017-05-05T00:34:12.164Z,58.40
2017-05-05T00:36:56.639Z,58.40
2017-05-05T00:39:25.122Z,58.40
2017-05-05T00:41:56.959Z,58.50
2017-05-05T00:44:44.694Z,58.40
2017-05-05T00:47:13.921Z,58.50
2017-05-05T00:49:44.620Z,58.40
2017-05-05T00:52:13.033Z,58.40
2017-05-05T00:54:45.317Z,58.30
2017-05-05T01:00:09.341Z,58.40
2017-05-05T01:02:45.728Z,58.30
2017-05-05T01:05:17.647Z,58.30
2017-05-05T01:07:49.017Z,58.30
2017-05-05T01:10:20.188Z,58.30
2017-05-05T01:12:48.636Z,58.30
2017-05-05T01:15:17.999Z,58.30
2017-05-05T01:17:50.113Z,58.30
2017-05-05T01:23:14.385Z,58.30
2017-05-05T01:25:47.104Z,58.90
2017-05-05T01:28:15.690Z,58.20
2017-05-05T01:30:46.064Z,58.20
2017-05-05T01:33:16.030Z,58.20
2017-05-05T01:35:44.422Z,58.10
2017-05-05T01:40:54.473Z,58.20
2017-05-05T01:43:30.006Z,58.10
2017-05-05T01:46:04.069Z,58.20
2017-05-05T01:51:43.539Z,58.80
2017-05-05T01:57:05.788Z,58.10
2017-05-05T01:59:36.498Z,58.00
2017-05-05T02:02:05.042Z,58.20
2017-05-05T02:04:46.000Z,58.10
2017-05-05T02:07:15.213Z,58.10
2017-05-05T02:09:45.138Z,58.10
2017-05-05T02:15:03.956Z,58.00
2017-05-05T02:17:36.493Z,58.00
2017-05-05T02:20:08.629Z,58.10
2017-05-05T02:22:52.094Z,58.00
2017-05-05T02:25:21.396Z,58.10
2017-05-05T02:27:57.450Z,58.10
2017-05-05T02:30:45.194Z,58.10
2017-05-05T02:33:13.554Z,58.10
2017-05-05T02:38:44.643Z,58.40
2017-05-05T02:41:14.584Z,58.50
2017-05-05T02:43:47.472Z,58.20
2017-05-05T02:48:58.609Z,58.10
2017-05-05T02:51:27.862Z,58.00
2017-05-05T02:56:54.955Z,58.00
2017-05-05T02:59:23.351Z,58.00
2017-05-05T03:01:51.956Z,58.00
2017-05-05T03:04:43.945Z,58.00
2017-05-05T03:07:13.303Z,58.00
2017-05-05T03:09:45.869Z,58.00
2017-05-05T03:12:15.150Z,58.30
2017-05-05T03:14:45.073Z,58.00
2017-05-05T03:17:20.411Z,58.00
2017-05-05T03:19:49.772Z,57.90
2017-05-05T03:22:45.193Z,57.90
2017-05-05T03:25:24.350Z,57.90
2017-05-05T03:27:52.717Z,57.90
2017-05-05T03:30:44.373Z,57.90
2017-05-05T03:33:14.318Z,57.90
2017-05-05T03:35:45.789Z,57.90
2017-05-05T03:40:56.056Z,57.90
2017-05-05T03:43:43.492Z,57.90
2017-05-05T03:46:11.976Z,57.90
2017-05-05T03:48:46.617Z,57.90
2017-05-05T03:51:15.750Z,57.90
2017-05-05T03:53:45.611Z,57.90
2017-05-05T03:56:14.826Z,57.90
2017-05-05T03:58:45.096Z,57.90
2017-05-05T04:01:14.297Z,57.90
2017-05-05T04:03:46.188Z,57.90
2017-05-05T04:06:14.567Z,57.90
2017-05-05T04:08:56.399Z,57.90
2017-05-05T04:11:26.480Z,57.90
2017-05-05T04:13:55.858Z,57.90
2017-05-05T04:16:44.313Z,57.90
2017-05-05T04:22:16.482Z,57.90
2017-05-05T04:24:45.776Z,57.90
2017-05-05T04:27:17.118Z,57.90
2017-05-05T04:29:45.601Z,57.90
2017-05-05T04:35:06.446Z,57.90
2017-05-05T04:37:45.195Z,57.90
2017-05-05T04:40:16.482Z,57.80
2017-05-05T04:42:44.940Z,57.30
2017-05-05T04:48:08.142Z,57.90
2017-05-05T04:50:44.663Z,57.60
2017-05-05T04:56:08.805Z,57.80
2017-05-05T04:58:44.789Z,58.10
2017-05-05T05:01:14.673Z,57.90
2017-05-05T05:03:45.694Z,58.80
2017-05-05T05:12:04.174Z,58.10
2017-05-05T05:14:45.414Z,58.10
2017-05-05T05:17:14.684Z,58.00
2017-05-05T05:19:46.380Z,58.00
2017-05-05T05:25:05.159Z,58.00
2017-05-05T05:27:46.080Z,57.90
2017-05-05T05:36:02.407Z,54.40
2017-05-05T05:38:44.144Z,52.20
2017-05-05T05:41:13.408Z,51.40
2017-05-05T05:43:44.912Z,51.30
2017-05-05T05:46:13.377Z,51.20
2017-05-05T05:48:44.560Z,53.90
2017-05-05T05:51:14.549Z,53.70
2017-05-05T05:53:46.037Z,53.50
2017-05-05T05:59:09.553Z,53.50
2017-05-05T06:01:41.646Z,53.40
2017-05-05T06:04:10.058Z,53.40
2017-05-05T06:06:39.235Z,53.60
2017-05-05T06:15:05.803Z,53.90
2017-05-05T06:17:44.626Z,54.00
2017-05-05T06:26:01.295Z,54.20
2017-05-05T06:28:44.666Z,54.20
2017-05-05T06:31:21.808Z,54.30
2017-05-05T06:36:46.649Z,53.90
2017-05-05T06:39:16.748Z,54.50
2017-05-05T06:41:46.983Z,54.60
2017-05-05T06:44:16.084Z,54.70
2017-05-05T06:46:49.752Z,54.80
2017-05-05T07:01:06.435Z,55.10
2017-05-05T07:03:45.946Z,54.90
2017-05-05T07:09:08.472Z,54.70
2017-05-05T07:11:36.977Z,54.70
2017-05-05T07:17:00.861Z,54.50
2017-05-05T07:19:44.481Z,54.30
2017-05-05T07:25:11.071Z,53.80
2017-05-05T07:27:45.780Z,53.60
2017-05-05T07:36:06.588Z,52.70
2017-05-05T07:38:45.975Z,52.90
2017-05-05T07:44:10.297Z,52.20
2017-05-05T07:46:46.119Z,52.70
2017-05-05T07:55:02.628Z,52.00
2017-05-05T07:57:44.908Z,52.00
2017-05-05T08:00:23.915Z,51.70
2017-05-05T08:02:53.735Z,52.10
2017-05-05T08:05:29.584Z,51.60
2017-05-05T08:13:49.772Z,51.80
2017-05-05T08:16:18.456Z,51.80
2017-05-05T08:18:46.820Z,51.90
2017-05-05T08:21:25.319Z,52.00
2017-05-05T08:23:56.612Z,52.30
2017-05-05T08:26:25.856Z,52.70
2017-05-05T08:31:48.359Z,52.70
2017-05-05T08:34:16.723Z,52.50
2017-05-05T08:36:46.046Z,52.50
2017-05-05T08:39:15.495Z,52.20
2017-05-05T08:41:44.889Z,52.70
2017-05-05T08:44:16.341Z,53.30
2017-05-05T08:46:45.486Z,52.90
2017-05-05T08:49:13.848Z,52.90
2017-05-05T08:51:42.428Z,52.80
2017-05-05T08:57:05.214Z,53.10
2017-05-05T08:59:35.126Z,53.30
2017-05-05T09:02:04.515Z,53.40
2017-05-05T09:07:20.884Z,53.50
2017-05-05T09:09:50.126Z,53.40
2017-05-05T09:12:24.216Z,53.10
2017-05-05T09:14:56.325Z,53.30
2017-05-05T09:17:24.893Z,53.40
2017-05-05T09:20:00.387Z,54.00
2017-05-05T09:22:30.424Z,54.00
2017-05-05T09:27:56.045Z,53.60
2017-05-05T09:30:44.116Z,53.80
2017-05-05T09:36:07.913Z,53.50
2017-05-05T09:38:44.876Z,53.70
2017-05-05T09:41:14.025Z,53.30
2017-05-05T09:43:47.374Z,53.80
2017-05-05T09:49:09.582Z,53.60
2017-05-05T09:51:38.841Z,53.30
2017-05-05T09:57:05.296Z,53.50
2017-05-05T09:59:36.783Z,53.40
2017-05-05T10:02:08.788Z,54.00
2017-05-05T10:04:37.269Z,53.10
2017-05-05T10:07:06.543Z,53.60
2017-05-05T10:09:35.835Z,53.70
2017-05-05T10:12:05.089Z,53.60
2017-05-05T10:14:34.620Z,53.60
2017-05-05T10:17:04.509Z,53.80
2017-05-05T10:19:34.039Z,53.60
2017-05-05T10:22:06.530Z,53.60
2017-05-05T10:24:35.671Z,53.80
2017-05-05T10:27:04.040Z,53.50
2017-05-05T10:29:45.914Z,54.20
2017-05-05T10:32:17.301Z,53.30
2017-05-05T10:34:48.810Z,53.20
2017-05-05T10:37:20.826Z,53.20
2017-05-05T10:39:49.292Z,53.10
2017-05-05T10:45:13.531Z,53.20
2017-05-05T10:47:42.799Z,53.40
2017-05-05T10:50:11.373Z,53.50
2017-05-05T10:52:40.898Z,53.30
2017-05-05T10:55:10.848Z,53.40
2017-05-05T10:57:39.335Z,53.40
2017-05-05T11:00:08.578Z,53.20
2017-05-05T11:02:36.997Z,53.90
2017-05-05T11:05:06.245Z,53.30
2017-05-05T11:07:34.614Z,53.20
2017-05-05T11:10:05.907Z,53.20
2017-05-05T11:12:38.152Z,53.30
2017-05-05T11:15:14.140Z,53.30
2017-05-05T11:17:44.017Z,53.40
2017-05-05T11:20:16.128Z,53.40
2017-05-05T11:22:44.531Z,54.00
2017-05-05T11:25:19.756Z,53.50
2017-05-05T11:27:48.869Z,53.60
2017-05-05T11:30:40.684Z,53.40
2017-05-05T11:36:03.666Z,53.50
2017-05-05T11:38:51.404Z,53.80
2017-05-05T11:41:19.846Z,56.80
2017-05-05T11:43:49.718Z,57.10
2017-05-05T11:46:19.149Z,57.10
2017-05-05T11:51:54.193Z,57.30
2017-05-05T11:54:43.849Z,56.90
2017-05-05T11:57:12.984Z,56.90
2017-05-05T11:59:43.058Z,58.40
2017-05-05T12:02:18.319Z,57.60
2017-05-05T12:04:52.393Z,57.40
2017-05-05T12:07:21.749Z,57.20
2017-05-05T12:09:50.886Z,57.20
2017-05-05T12:12:20.168Z,56.90
2017-05-05T12:14:48.533Z,58.00
2017-05-05T12:20:10.618Z,58.60
2017-05-05T12:25:34.213Z,58.90
2017-05-05T12:28:03.325Z,58.80
2017-05-05T12:30:45.081Z,58.00
2017-05-05T12:33:14.279Z,57.50
2017-05-05T12:35:42.699Z,59.10
2017-05-05T12:38:11.206Z,58.90
2017-05-05T12:40:45.937Z,59.00
2017-05-05T12:43:14.385Z,59.20
2017-05-05T12:45:52.508Z,58.30
2017-05-05T12:48:45.292Z,60.10
2017-05-05T12:51:14.496Z,59.40
2017-05-05T12:53:54.405Z,59.70
2017-05-05T12:56:46.574Z,59.40
2017-05-05T12:59:15.205Z,59.50
2017-05-05T13:04:21.681Z,58.70
2017-05-05T13:09:53.883Z,60.90
2017-05-05T13:15:13.905Z,60.40
2017-05-05T13:17:41.721Z,60.40
2017-05-05T13:23:08.886Z,59.00
2017-05-05T13:25:45.401Z,59.80
2017-05-05T13:28:22.176Z,59.30
2017-05-05T13:30:54.917Z,57.60
2017-05-05T13:33:23.483Z,57.60
2017-05-05T13:35:54.660Z,58.00
2017-05-05T13:38:28.798Z,59.40
2017-05-05T13:40:59.494Z,60.80
2017-05-05T13:43:28.578Z,62.40
2017-05-05T13:45:56.992Z,59.90
2017-05-05T13:48:26.118Z,60.90
2017-05-05T13:50:58.324Z,62.90
2017-05-05T13:53:46.145Z,63.80
2017-05-05T13:56:14.589Z,61.00
2017-05-05T13:58:53.043Z,63.60
2017-05-05T14:01:23.196Z,63.40
2017-05-05T14:06:46.396Z,60.90
2017-05-05T14:12:09.909Z,62.20
2017-05-05T14:14:38.366Z,64.40
2017-05-05T14:20:01.774Z,65.40
2017-05-05T14:22:30.167Z,63.50
2017-05-05T14:24:59.392Z,64.50
2017-05-05T14:27:45.565Z,64.70
2017-05-05T14:30:17.388Z,64.60
2017-05-05T14:35:40.004Z,64.80
2017-05-05T14:38:09.277Z,64.20
2017-05-05T14:43:39.504Z,66.30
2017-05-05T14:46:11.427Z,65.90
2017-05-05T14:48:42.668Z,67.10
2017-05-05T14:51:12.629Z,64.40
2017-05-05T14:53:47.548Z,64.60
2017-05-05T14:56:18.820Z,63.40
2017-05-05T14:58:47.247Z,63.80
2017-05-05T15:07:08.314Z,64.40
2017-05-05T15:09:36.721Z,66.50
2017-05-05T15:12:06.961Z,65.60
2017-05-05T15:14:36.040Z,65.30
2017-05-05T15:17:07.291Z,65.80
2017-05-05T15:19:42.546Z,65.80
2017-05-05T15:22:10.912Z,66.80
2017-05-05T15:24:45.284Z,67.00
2017-05-05T15:30:11.174Z,66.80
2017-05-05T15:32:42.808Z,67.30
2017-05-05T15:35:21.458Z,66.50
2017-05-05T15:37:51.418Z,66.60
2017-05-05T15:40:19.827Z,66.90
2017-05-05T15:42:48.248Z,65.40
2017-05-05T15:45:44.414Z,65.80
2017-05-05T15:59:00.175Z,62.10
2017-05-05T16:01:29.162Z,62.00
2017-05-05T16:18:11.580Z,62.10
2017-05-05T16:20:46.318Z,61.70
2017-05-05T16:23:45.296Z,61.10
2017-05-05T16:26:14.290Z,60.60
2017-05-05T16:28:43.921Z,60.80
2017-05-05T16:31:16.573Z,61.20
2017-05-05T16:33:50.921Z,61.30
2017-05-05T16:36:22.244Z,60.90
2017-05-05T16:38:52.365Z,60.90
2017-05-05T16:41:21.372Z,61.00
2017-05-05T16:46:54.913Z,61.20
2017-05-05T16:49:45.609Z,61.80
2017-05-05T16:52:16.895Z,61.10
2017-05-05T16:57:53.213Z,62.70
2017-05-05T17:00:45.383Z,63.50
2017-05-05T17:03:44.516Z,64.50
2017-05-05T17:06:36.925Z,65.30
2017-05-05T17:18:10.072Z,68.50
2017-05-05T17:20:46.413Z,67.90
2017-05-05T17:23:23.089Z,68.40
2017-05-05T17:25:53.865Z,68.10
2017-05-05T17:28:46.277Z,68.50
2017-05-05T17:37:45.552Z,69.10
2017-05-05T17:40:18.077Z,68.80
2017-05-05T17:42:47.817Z,68.90
2017-05-05T17:45:44.723Z,69.00
2017-05-05T17:48:13.766Z,69.10
2017-05-05T17:50:46.285Z,69.10
2017-05-05T17:53:41.710Z,68.90
2017-05-05T18:02:14.926Z,69.40
2017-05-05T18:04:46.973Z,69.50
2017-05-05T18:13:44.171Z,69.40
2017-05-05T18:16:13.238Z,69.70
2017-05-05T18:19:09.350Z,70.60
2017-05-05T18:21:38.442Z,70.20
2017-05-05T18:27:08.568Z,70.60
2017-05-05T18:29:46.445Z,70.60
2017-05-05T18:32:33.243Z,70.50
2017-05-05T18:35:02.242Z,71.60
2017-05-05T18:37:45.906Z,70.60
2017-05-05T18:40:15.002Z,70.40
2017-05-05T18:42:44.014Z,70.20
2017-05-05T18:45:44.346Z,70.30
2017-05-05T18:48:13.357Z,70.20
2017-05-05T18:50:43.127Z,70.30
2017-05-05T18:53:12.218Z,70.20
2017-05-05T18:55:41.222Z,70.10
2017-05-05T19:01:11.167Z,70.20
2017-05-05T19:03:40.224Z,70.20
2017-05-05T19:06:09.252Z,70.50
2017-05-05T19:08:46.029Z,70.70
2017-05-05T19:11:15.077Z,71.00
2017-05-05T19:13:44.093Z,70.80
2017-05-05T19:16:13.094Z,71.60
2017-05-05T19:18:42.169Z,70.60
2017-05-05T19:27:44.410Z,70.40
2017-05-05T19:30:36.627Z,70.40
2017-05-05T19:39:08.516Z,70.10
2017-05-05T19:41:46.093Z,70.10
2017-05-05T19:44:15.109Z,70.00
2017-05-05T19:46:44.102Z,69.80
2017-05-05T19:49:13.093Z,70.60
2017-05-05T19:51:42.181Z,69.50
2017-05-05T19:54:11.277Z,69.40
2017-05-05T19:56:40.384Z,69.50
2017-05-05T19:59:09.470Z,69.60
2017-05-05T20:02:23.126Z,69.70
2017-05-05T20:04:52.126Z,70.50
2017-05-05T20:07:21.174Z,71.00
2017-05-05T20:09:50.194Z,71.30
2017-05-05T20:12:19.284Z,71.30
2017-05-05T20:14:48.322Z,71.40
2017-05-05T20:19:02.278Z,71.80
2017-05-05T20:21:32.018Z,71.40
2017-05-05T20:24:01.038Z,69.50
2017-05-05T20:26:30.117Z,70.30
2017-05-05T20:32:00.578Z,72.20
2017-05-05T20:34:29.666Z,71.80
2017-05-05T20:36:58.767Z,71.40
2017-05-05T20:39:27.758Z,71.50
2017-05-05T20:41:56.847Z,71.50
2017-05-05T20:44:25.869Z,71.50
2017-05-05T20:46:54.879Z,71.50
2017-05-05T20:49:23.873Z,71.70
2017-05-05T20:51:52.874Z,71.60
2017-05-05T20:54:22.620Z,71.40
2017-05-05T20:56:51.731Z,71.20
2017-05-05T20:59:20.741Z,71.20
2017-05-05T21:01:49.743Z,71.20
2017-05-05T21:04:44.419Z,69.00
2017-05-05T21:07:13.450Z,67.70
2017-05-05T21:09:43.230Z,67.50
2017-05-05T21:12:12.298Z,66.90
2017-05-05T21:14:47.810Z,66.70
2017-05-05T21:17:17.647Z,65.60
2017-05-05T21:19:46.643Z,64.80
2017-05-05T21:22:15.664Z,65.00
2017-05-05T21:24:46.387Z,64.50
2017-05-05T21:27:15.480Z,63.90
2017-05-05T21:29:44.651Z,63.80
2017-05-05T21:32:13.771Z,63.90
2017-05-05T21:34:42.859Z,63.90
2017-05-05T21:37:11.854Z,63.60
2017-05-05T21:39:40.946Z,64.50
2017-05-05T21:42:09.943Z,66.90
2017-05-05T21:44:39.034Z,67.60
2017-05-05T21:47:08.066Z,68.50
2017-05-05T21:49:37.126Z,69.30
2017-05-05T21:52:06.223Z,69.90
2017-05-05T21:54:35.273Z,71.10
2017-05-05T21:57:05.024Z,70.30
2017-05-05T21:59:46.829Z,70.70
2017-05-05T22:02:15.817Z,70.70
2017-05-05T22:04:44.828Z,71.10
2017-05-05T22:07:13.883Z,71.00
2017-05-05T22:09:46.149Z,71.20
2017-05-05T22:12:16.114Z,71.50
2017-05-05T22:14:45.102Z,71.40
2017-05-05T22:17:14.153Z,71.20
2017-05-05T22:19:43.258Z,71.30
2017-05-05T22:22:12.344Z,71.50
2017-05-05T22:24:41.451Z,71.50
2017-05-05T22:30:11.994Z,71.50
2017-05-05T22:32:41.093Z,71.60
2017-05-05T22:35:10.183Z,71.70
2017-05-05T22:37:46.179Z,71.70
2017-05-05T22:40:45.771Z,71.60
2017-05-05T22:43:14.842Z,71.60
2017-05-05T22:45:47.444Z,71.70
2017-05-05T22:48:16.518Z,71.70
2017-05-05T22:53:24.034Z,71.50
2017-05-05T22:55:53.132Z,71.40
2017-05-05T22:58:22.206Z,71.40
2017-05-05T23:00:51.297Z,71.60
2017-05-05T23:03:46.319Z,71.20
2017-05-05T23:06:15.354Z,71.30
2017-05-05T23:08:45.120Z,71.50
2017-05-05T23:11:14.205Z,71.50
2017-05-05T23:13:43.231Z,71.40
2017-05-05T23:22:14.572Z,71.50
2017-05-05T23:24:43.578Z,71.40
2017-05-05T23:27:12.560Z,71.40
2017-05-05T23:29:41.657Z,71.30
2017-05-05T23:32:10.667Z,71.20
2017-05-05T23:34:39.855Z,71.20
2017-05-05T23:37:08.882Z,71.40
2017-05-05T23:39:37.866Z,71.20
2017-05-05T23:42:06.934Z,71.40
2017-05-05T23:44:46.285Z,71.20
2017-05-05T23:47:45.178Z,71.20
2017-05-05T23:50:14.263Z,71.10
2017-05-05T23:52:47.029Z,70.90
2017-05-05T23:55:16.140Z,70.70
2017-05-05T23:57:45.134Z,71.20
